createdAt,value
2023-01-08T00:01:23.953Z,95675.02
2023-01-08T00:03:52.328Z,95676.99
2023-01-08T00:06:25.416Z,95675.16
2023-01-08T00:08:53.612Z,95674.20
2023-01-08T00:11:21.999Z,95670.43
2023-01-08T00:13:50.039Z,95673.15
2023-01-08T00:16:19.370Z,95669.63
2023-01-08T00:18:48.234Z,95672.75
2023-01-08T00:21:16.267Z,95673.72
2023-01-08T00:23:44.630Z,95671.54
2023-01-08T00:26:13.952Z,95671.97
2023-01-08T00:28:42.298Z,95672.92
2023-01-08T00:31:12.340Z,95671.77
2023-01-08T00:33:41.205Z,95667.54
2023-01-08T00:36:15.135Z,95671.06
2023-01-08T00:38:45.069Z,95671.41
2023-01-08T00:41:15.293Z,95664.79
2023-01-08T00:43:43.573Z,95672.40
2023-01-08T00:46:11.835Z,95666.21
2023-01-08T00:48:40.043Z,95672.40
2023-01-08T00:51:09.590Z,95677.20
2023-01-08T00:53:38.341Z,95673.29
2023-01-08T00:56:09.455Z,95680.17
2023-01-08T00:58:37.876Z,95680.65
2023-01-08T01:01:13.509Z,95674.02
2023-01-08T01:03:42.716Z,95673.78
2023-01-08T01:06:12.432Z,95675.67
2023-01-08T01:08:40.877Z,95679.73
2023-01-08T01:11:10.921Z,95675.10
2023-01-08T01:13:39.001Z,95676.95
2023-01-08T01:16:07.507Z,95674.07
2023-01-08T01:18:35.892Z,95678.32
2023-01-08T01:21:10.803Z,95682.16
2023-01-08T01:23:38.870Z,95683.86
2023-01-08T01:26:06.859Z,95677.10
2023-01-08T01:28:34.943Z,95673.46
2023-01-08T01:31:03.916Z,95673.26
2023-01-08T01:33:32.095Z,95676.43
2023-01-08T01:36:01.439Z,95675.27
2023-01-08T01:38:30.145Z,95666.33
2023-01-08T01:40:58.590Z,95661.10
2023-01-08T01:43:38.559Z,95663.48
2023-01-08T01:46:22.604Z,95659.98
2023-01-08T01:48:55.053Z,95655.87
2023-01-08T01:51:29.540Z,95654.90
2023-01-08T01:53:59.066Z,95657.42
2023-01-08T01:56:29.176Z,95655.29
2023-01-08T01:58:57.358Z,95647.95
2023-01-08T02:01:26.719Z,95644.86
2023-01-08T02:03:54.854Z,95646.27
2023-01-08T02:06:31.699Z,95643.02
2023-01-08T02:09:37.184Z,95645.73
2023-01-08T02:12:16.651Z,95635.48
2023-01-08T02:14:47.714Z,95635.05
2023-01-08T02:17:32.555Z,95631.94
2023-01-08T02:20:11.614Z,95636.30
2023-01-08T02:23:09.249Z,95634.28
2023-01-08T02:25:43.342Z,95631.54
2023-01-08T02:28:14.919Z,95628.17
2023-01-08T02:30:43.786Z,95624.67
2023-01-08T02:33:12.584Z,95625.01
2023-01-08T02:35:42.272Z,95621.39
2023-01-08T02:38:14.583Z,95620.19
2023-01-08T02:40:54.304Z,95626.54
2023-01-08T02:43:49.429Z,95622.15
2023-01-08T02:46:27.105Z,95618.13
2023-01-08T02:49:02.645Z,95615.42
2023-01-08T02:51:40.315Z,95614.52
2023-01-08T02:54:14.946Z,95616.42
2023-01-08T02:56:47.491Z,95611.04
2023-01-08T02:59:18.255Z,95607.28
2023-01-08T03:01:47.339Z,95605.20
2023-01-08T03:04:21.968Z,95602.67
2023-01-08T03:06:50.930Z,95601.70
2023-01-08T03:09:18.930Z,95598.92
2023-01-08T03:12:00.469Z,95603.36
2023-01-08T03:14:44.013Z,95601.20
2023-01-08T03:17:21.897Z,95596.70
2023-01-08T03:19:54.878Z,95601.40
2023-01-08T03:22:24.205Z,95606.96
2023-01-08T03:24:54.628Z,95596.52
2023-01-08T03:27:28.263Z,95600.47
2023-01-08T03:29:59.342Z,95597.44
2023-01-08T03:32:30.163Z,95597.52
2023-01-08T03:35:01.135Z,95592.39
2023-01-08T03:37:35.543Z,95597.88
2023-01-08T03:40:10.028Z,95597.70
2023-01-08T03:42:38.362Z,95595.41
2023-01-08T03:45:06.962Z,95592.46
2023-01-08T03:47:37.142Z,95597.71
2023-01-08T03:50:09.701Z,95596.01
2023-01-08T03:52:37.683Z,95595.29
2023-01-08T03:55:06.441Z,95596.54
2023-01-08T03:57:34.508Z,95596.27
2023-01-08T04:00:02.555Z,95600.34
2023-01-08T04:02:33.343Z,95597.11
2023-01-08T04:05:02.188Z,95600.06
2023-01-08T04:07:30.183Z,95600.16
2023-01-08T04:09:58.231Z,95601.88
2023-01-08T04:12:26.237Z,95603.06
2023-01-08T04:14:54.222Z,95596.06
2023-01-08T04:17:22.158Z,95598.29
2023-01-08T04:19:50.157Z,95602.23
2023-01-08T04:22:18.139Z,95599.41
2023-01-08T04:24:46.337Z,95608.64
2023-01-08T04:27:14.389Z,95602.82
2023-01-08T04:29:42.375Z,95599.60
2023-01-08T04:32:10.420Z,95596.55
2023-01-08T04:34:38.480Z,95595.96
2023-01-08T04:37:06.494Z,95596.73
2023-01-08T04:39:34.514Z,95596.98
2023-01-08T04:42:02.646Z,95597.11
2023-01-08T04:44:31.241Z,95590.30
2023-01-08T04:46:59.279Z,95590.77
2023-01-08T04:49:27.465Z,95590.38
2023-01-08T04:51:55.651Z,95588.49
2023-01-08T04:54:23.731Z,95585.02
2023-01-08T04:56:52.116Z,95580.08
2023-01-08T04:59:20.160Z,95579.69
2023-01-08T05:01:48.659Z,95580.14
2023-01-08T05:04:16.810Z,95574.21
2023-01-08T05:06:44.950Z,95576.33
2023-01-08T05:09:13.029Z,95578.40
2023-01-08T05:11:41.317Z,95575.88
2023-01-08T05:14:09.439Z,95573.14
2023-01-08T05:16:37.671Z,95572.27
2023-01-08T05:19:05.743Z,95572.02
2023-01-08T05:21:33.932Z,95570.51
2023-01-08T05:24:01.950Z,95572.65
2023-01-08T05:26:29.986Z,95579.99
2023-01-08T05:28:58.680Z,95575.91
2023-01-08T05:31:26.941Z,95577.44
2023-01-08T05:33:57.342Z,95580.54
2023-01-08T05:36:25.308Z,95579.04
2023-01-08T05:38:53.680Z,95576.66
2023-01-08T05:41:21.749Z,95576.60
2023-01-08T05:43:49.827Z,95573.00
2023-01-08T05:46:18.234Z,95577.17
2023-01-08T05:48:46.291Z,95581.50
2023-01-08T05:51:14.305Z,95581.40
2023-01-08T05:53:42.419Z,95582.09
2023-01-08T05:56:12.395Z,95576.04
2023-01-08T05:58:40.673Z,95578.90
2023-01-08T06:01:18.164Z,95582.12
2023-01-08T06:03:46.248Z,95580.98
2023-01-08T06:06:16.093Z,95587.44
2023-01-08T06:08:44.156Z,95584.79
2023-01-08T06:11:12.574Z,95587.15
2023-01-08T06:13:43.389Z,95589.73
2023-01-08T06:16:12.582Z,95590.25
2023-01-08T06:18:41.090Z,95595.45
2023-01-08T06:21:09.681Z,95593.77
2023-01-08T06:23:37.645Z,95597.56
2023-01-08T06:26:06.452Z,95598.23
2023-01-08T06:28:35.558Z,95595.06
2023-01-08T06:31:04.227Z,95589.84
2023-01-08T06:33:32.536Z,95591.08
2023-01-08T06:36:05.439Z,95593.09
2023-01-08T06:38:35.373Z,95589.20
2023-01-08T06:41:08.922Z,95589.46
2023-01-08T06:43:38.630Z,95592.45
2023-01-08T06:46:08.940Z,95593.48
2023-01-08T06:48:37.855Z,95593.56
2023-01-08T06:51:06.234Z,95602.05
2023-01-08T06:53:34.376Z,95597.25
2023-01-08T06:56:04.093Z,95598.38
2023-01-08T06:58:32.483Z,95602.05
2023-01-08T07:01:01.071Z,95603.98
2023-01-08T07:03:29.214Z,95602.10
2023-01-08T07:05:57.540Z,95601.05
2023-01-08T07:08:25.555Z,95601.09
2023-01-08T07:10:54.428Z,95605.27
2023-01-08T07:13:23.938Z,95608.58
2023-01-08T07:15:52.081Z,95607.84
2023-01-08T07:18:20.148Z,95611.05
2023-01-08T07:20:49.047Z,95610.30
2023-01-08T07:23:16.927Z,95608.63
2023-01-08T07:25:45.035Z,95611.20
2023-01-08T07:28:13.452Z,95612.71
2023-01-08T07:30:41.644Z,95614.69
2023-01-08T07:33:09.734Z,95621.88
2023-01-08T07:35:39.140Z,95623.09
2023-01-08T07:38:07.206Z,95632.20
2023-01-08T07:40:35.274Z,95629.65
2023-01-08T07:43:04.596Z,95636.52
2023-01-08T07:45:32.734Z,95632.37
2023-01-08T07:48:00.820Z,95631.00
2023-01-08T07:50:29.021Z,95634.10
2023-01-08T07:53:00.594Z,95628.94
2023-01-08T07:55:30.210Z,95624.80
2023-01-08T07:57:58.994Z,95627.91
2023-01-08T08:00:27.155Z,95624.52
2023-01-08T08:02:55.247Z,95623.35
2023-01-08T08:05:23.428Z,95625.33
2023-01-08T08:07:51.549Z,95628.05
2023-01-08T08:10:19.760Z,95626.42
2023-01-08T08:12:47.889Z,95625.71
2023-01-08T08:15:15.962Z,95627.72
2023-01-08T08:17:48.248Z,95630.29
2023-01-08T08:20:16.814Z,95636.21
2023-01-08T08:22:45.009Z,95631.25
2023-01-08T08:25:15.485Z,95639.39
2023-01-08T08:27:44.852Z,95629.91
2023-01-08T08:30:13.832Z,95628.65
2023-01-08T08:32:42.028Z,95637.27
2023-01-08T08:35:10.345Z,95635.52
2023-01-08T08:37:38.426Z,95636.70
2023-01-08T08:40:07.416Z,95639.34
2023-01-08T08:42:35.480Z,95642.36
2023-01-08T08:45:04.932Z,95647.51
2023-01-08T08:47:33.072Z,95646.81
2023-01-08T08:50:02.269Z,95649.64
2023-01-08T08:52:31.707Z,95646.13
2023-01-08T08:55:00.397Z,95642.23
2023-01-08T08:57:28.534Z,95640.18
2023-01-08T08:59:56.841Z,95640.51
2023-01-08T09:02:25.157Z,95637.80
2023-01-08T09:04:53.520Z,95631.84
2023-01-08T09:07:21.700Z,95632.56
2023-01-08T09:09:49.953Z,95631.11
2023-01-08T09:12:18.171Z,95625.27
2023-01-08T09:14:46.193Z,95620.88
2023-01-08T09:17:14.207Z,95622.05
2023-01-08T09:19:42.302Z,95618.90
2023-01-08T09:22:10.375Z,95612.56
2023-01-08T09:24:38.560Z,95612.54
2023-01-08T09:27:06.570Z,95609.14
2023-01-08T09:29:34.564Z,95607.13
2023-01-08T09:32:07.332Z,95604.65
2023-01-08T09:34:38.726Z,95599.70
2023-01-08T09:37:07.035Z,95601.14
2023-01-08T09:39:36.316Z,95597.59
2023-01-08T09:42:06.216Z,95601.10
2023-01-08T09:44:42.493Z,95596.94
2023-01-08T09:47:38.703Z,95590.98
2023-01-08T09:50:12.557Z,95588.08
2023-01-08T09:52:43.456Z,95587.48
2023-01-08T09:55:16.643Z,95581.80
2023-01-08T09:57:45.377Z,95589.89
2023-01-08T10:00:21.699Z,95590.34
2023-01-08T10:02:50.641Z,95587.98
2023-01-08T10:05:18.767Z,95587.81
2023-01-08T10:07:47.431Z,95583.92
2023-01-08T10:10:34.114Z,95581.48
2023-01-08T10:13:02.811Z,95578.55
2023-01-08T10:15:31.030Z,95573.48
2023-01-08T10:18:13.920Z,95568.14
2023-01-08T10:20:42.061Z,95563.36
2023-01-08T10:23:15.770Z,95564.59
2023-01-08T10:25:57.507Z,95561.35
2023-01-08T10:28:28.281Z,95564.79
2023-01-08T10:31:15.318Z,95558.95
2023-01-08T10:34:52.913Z,95557.88
2023-01-08T10:37:37.151Z,95554.16
2023-01-08T10:40:14.677Z,95555.19
2023-01-08T10:42:42.925Z,95561.53
2023-01-08T10:45:21.759Z,95556.33
2023-01-08T10:47:55.615Z,95552.08
2023-01-08T10:50:27.959Z,95542.48
2023-01-08T10:53:01.369Z,95545.50
2023-01-08T10:55:29.504Z,95544.17
2023-01-08T10:58:03.501Z,95543.79
2023-01-08T11:00:36.639Z,95538.45
2023-01-08T11:03:08.020Z,95536.78
2023-01-08T11:05:39.382Z,95536.45
2023-01-08T11:08:15.942Z,95535.42
2023-01-08T11:10:54.133Z,95528.79
2023-01-08T11:13:23.148Z,95522.83
2023-01-08T11:16:07.246Z,95521.30
2023-01-08T11:18:48.007Z,95516.46
2023-01-08T11:21:23.192Z,95519.41
2023-01-08T11:24:18.892Z,95515.95
2023-01-08T11:26:57.920Z,95516.12
2023-01-08T11:29:51.181Z,95513.61
2023-01-08T11:32:28.907Z,95517.64
2023-01-08T11:35:03.496Z,95517.80
2023-01-08T11:37:37.424Z,95514.83
2023-01-08T11:40:44.588Z,95513.21
2023-01-08T11:43:18.313Z,95510.05
2023-01-08T11:45:54.262Z,95510.83
2023-01-08T11:48:41.221Z,95510.35
2023-01-08T11:51:30.766Z,95513.34
2023-01-08T11:54:26.466Z,95511.79
2023-01-08T11:57:25.604Z,95510.09
2023-01-08T11:59:59.491Z,95517.80
2023-01-08T12:02:54.742Z,95516.30
2023-01-08T12:05:35.204Z,95511.30
2023-01-08T12:08:16.612Z,95509.37
2023-01-08T12:11:05.406Z,95504.47
2023-01-08T12:14:05.444Z,95503.77
2023-01-08T12:16:45.479Z,95507.66
2023-01-08T12:19:46.448Z,95509.54
2023-01-08T12:22:23.410Z,95514.81
2023-01-08T12:25:25.418Z,95518.69
2023-01-08T12:28:14.893Z,95516.89
2023-01-08T12:31:27.770Z,95510.04
2023-01-08T12:34:12.824Z,95506.32
2023-01-08T12:36:45.956Z,95498.44
2023-01-08T12:39:24.723Z,95496.52
2023-01-08T12:41:53.589Z,95495.99
2023-01-08T12:44:28.499Z,95490.03
2023-01-08T12:47:00.867Z,95490.95
2023-01-08T12:50:20.493Z,95488.02
2023-01-08T12:53:09.496Z,95490.55
2023-01-08T12:56:01.091Z,95485.38
2023-01-08T12:58:40.172Z,95484.11
2023-01-08T13:01:23.759Z,95483.31
2023-01-08T13:03:53.849Z,95485.59
2023-01-08T13:06:22.878Z,95483.98
2023-01-08T13:08:54.062Z,95480.45
2023-01-08T13:11:28.928Z,95481.52
2023-01-08T13:14:10.684Z,95481.84
2023-01-08T13:16:41.421Z,95473.73
2023-01-08T13:19:25.137Z,95474.17
2023-01-08T13:21:58.388Z,95464.36
2023-01-08T13:24:37.997Z,95466.54
2023-01-08T13:27:28.059Z,95468.13
2023-01-08T13:29:58.252Z,95467.86
2023-01-08T13:32:48.948Z,95467.90
2023-01-08T13:35:17.032Z,95463.04
2023-01-08T13:37:48.592Z,95457.05
2023-01-08T13:40:35.839Z,95456.50
2023-01-08T13:43:06.990Z,95452.20
2023-01-08T13:45:36.888Z,95445.29
2023-01-08T13:48:05.240Z,95447.67
2023-01-08T13:50:46.728Z,95444.55
2023-01-08T13:53:15.670Z,95444.09
2023-01-08T13:55:59.750Z,95443.48
2023-01-08T13:58:34.090Z,95443.68
2023-01-08T14:01:04.392Z,95432.83
2023-01-08T14:03:38.618Z,95429.86
2023-01-08T14:06:14.056Z,95428.13
2023-01-08T14:09:01.836Z,95434.40
2023-01-08T14:11:37.051Z,95432.23
2023-01-08T14:14:05.533Z,95429.80
2023-01-08T14:16:37.361Z,95420.46
2023-01-08T14:19:05.879Z,95423.27
2023-01-08T14:21:34.685Z,95424.45
2023-01-08T14:24:02.756Z,95426.30
2023-01-08T14:26:39.053Z,95422.78
2023-01-08T14:29:16.298Z,95412.45
2023-01-08T14:31:53.334Z,95411.85
2023-01-08T14:34:23.574Z,95415.27
2023-01-08T14:36:53.555Z,95414.48
2023-01-08T14:39:32.391Z,95421.50
2023-01-08T14:42:20.918Z,95420.18
2023-01-08T14:45:14.429Z,95420.35
2023-01-08T14:47:49.405Z,95413.69
2023-01-08T14:50:25.709Z,95417.92
2023-01-08T14:52:59.670Z,95418.29
2023-01-08T14:55:29.277Z,95423.63
2023-01-08T14:57:57.488Z,95414.64
2023-01-08T15:00:29.754Z,95417.45
2023-01-08T15:02:57.900Z,95412.38
2023-01-08T15:05:31.547Z,95419.77
2023-01-08T15:08:24.328Z,95413.58
2023-01-08T15:11:03.319Z,95410.58
2023-01-08T15:13:38.387Z,95405.08
2023-01-08T15:16:35.514Z,95402.13
2023-01-08T15:19:13.750Z,95402.13
2023-01-08T15:21:50.165Z,95409.44
2023-01-08T15:24:34.654Z,95401.13
2023-01-08T15:27:10.289Z,95395.58
2023-01-08T15:29:59.109Z,95403.60
2023-01-08T15:32:32.624Z,95409.95
2023-01-08T15:35:01.440Z,95401.48
2023-01-08T15:37:30.523Z,95399.59
2023-01-08T15:39:58.667Z,95403.04
2023-01-08T15:42:51.052Z,95402.08
2023-01-08T15:45:22.186Z,95394.23
2023-01-08T15:47:50.305Z,95393.23
2023-01-08T15:50:20.494Z,95392.96
2023-01-08T15:52:49.061Z,95395.16
2023-01-08T15:55:21.889Z,95392.56
2023-01-08T15:57:51.139Z,95390.25
2023-01-08T16:00:22.641Z,95384.77
2023-01-08T16:02:52.915Z,95386.09
2023-01-08T16:05:23.188Z,95384.43
2023-01-08T16:07:51.470Z,95383.58
2023-01-08T16:10:19.948Z,95381.95
2023-01-08T16:12:48.326Z,95381.52
2023-01-08T16:15:16.924Z,95382.63
2023-01-08T16:17:45.476Z,95381.31
2023-01-08T16:20:14.640Z,95381.75
2023-01-08T16:22:43.150Z,95382.59
2023-01-08T16:25:11.738Z,95377.89
2023-01-08T16:27:41.149Z,95374.57
2023-01-08T16:30:14.844Z,95374.61
2023-01-08T16:32:43.398Z,95372.92
2023-01-08T16:35:12.346Z,95370.46
2023-01-08T16:37:40.868Z,95377.23
2023-01-08T16:40:10.031Z,95378.14
2023-01-08T16:42:38.329Z,95384.36
2023-01-08T16:45:07.848Z,95383.33
2023-01-08T16:47:39.704Z,95380.66
2023-01-08T16:50:10.354Z,95374.06
2023-01-08T16:52:39.101Z,95376.45
2023-01-08T16:55:07.870Z,95383.83
2023-01-08T16:57:36.076Z,95389.34
2023-01-08T17:00:06.155Z,95380.21
2023-01-08T17:02:34.495Z,95372.73
2023-01-08T17:05:02.909Z,95374.84
2023-01-08T17:07:31.062Z,95374.45
2023-01-08T17:09:59.239Z,95379.39
2023-01-08T17:12:27.589Z,95384.79
2023-01-08T17:14:55.704Z,95385.11
2023-01-08T17:17:24.001Z,95374.61
2023-01-08T17:19:52.344Z,95366.18
2023-01-08T17:22:20.376Z,95383.48
2023-01-08T17:24:49.047Z,95392.60
2023-01-08T17:27:17.339Z,95386.66
2023-01-08T17:29:45.513Z,95383.88
2023-01-08T17:32:14.331Z,95384.02
2023-01-08T17:34:42.334Z,95384.90
2023-01-08T17:37:10.288Z,95375.41
2023-01-08T17:39:38.402Z,95371.31
2023-01-08T17:42:24.510Z,95373.44
2023-01-08T17:44:53.495Z,95375.39
2023-01-08T17:47:22.433Z,95374.71
2023-01-08T17:49:51.439Z,95362.13
2023-01-08T17:52:20.419Z,95358.55
2023-01-08T17:54:49.804Z,95365.11
2023-01-08T17:57:19.384Z,95371.84
2023-01-08T17:59:48.595Z,95366.12
2023-01-08T18:02:17.819Z,95367.23
2023-01-08T18:04:46.080Z,95373.52
2023-01-08T18:07:15.482Z,95361.19
2023-01-08T18:09:44.925Z,95358.09
2023-01-08T18:12:13.091Z,95362.17
2023-01-08T18:14:42.136Z,95369.68
2023-01-08T18:17:10.629Z,95367.71
2023-01-08T18:19:38.828Z,95360.95
2023-01-08T18:22:06.941Z,95360.66
2023-01-08T18:24:35.815Z,95364.75
2023-01-08T18:27:04.299Z,95367.63
2023-01-08T18:29:32.288Z,95356.06
2023-01-08T18:32:01.029Z,95347.83
2023-01-08T18:34:29.037Z,95345.44
2023-01-08T18:36:57.127Z,95342.80
2023-01-08T18:39:27.572Z,95344.35
2023-01-08T18:42:14.381Z,95341.14
2023-01-08T18:44:42.542Z,95345.64
2023-01-08T18:47:12.684Z,95345.61
2023-01-08T18:49:40.669Z,95340.08
2023-01-08T18:52:11.043Z,95340.39
2023-01-08T18:54:39.390Z,95335.04
2023-01-08T18:57:07.554Z,95331.71
2023-01-08T18:59:35.666Z,95323.02
2023-01-08T19:02:03.938Z,95324.17
2023-01-08T19:04:32.635Z,95322.35
2023-01-08T19:07:00.711Z,95324.34
2023-01-08T19:09:28.996Z,95323.59
2023-01-08T19:11:57.082Z,95321.52
2023-01-08T19:14:25.083Z,95322.84
2023-01-08T19:16:53.340Z,95326.98
2023-01-08T19:19:21.646Z,95327.05
2023-01-08T19:21:49.866Z,95323.73
2023-01-08T19:24:17.877Z,95321.34
2023-01-08T19:26:45.946Z,95318.70
2023-01-08T19:29:14.146Z,95327.90
2023-01-08T19:31:42.330Z,95328.16
2023-01-08T19:34:10.794Z,95328.25
2023-01-08T19:36:39.541Z,95326.53
2023-01-08T19:39:11.225Z,95325.06
2023-01-08T19:41:58.543Z,95326.13
2023-01-08T19:44:26.658Z,95324.55
2023-01-08T19:46:54.807Z,95320.42
2023-01-08T19:49:24.074Z,95319.92
2023-01-08T19:51:52.752Z,95320.51
2023-01-08T19:54:23.833Z,95321.59
2023-01-08T19:56:53.228Z,95317.91
2023-01-08T19:59:22.130Z,95313.99
2023-01-08T20:01:50.728Z,95313.20
2023-01-08T20:04:19.010Z,95309.02
2023-01-08T20:06:47.375Z,95304.20
2023-01-08T20:09:16.185Z,95296.59
2023-01-08T20:11:44.327Z,95293.41
2023-01-08T20:14:12.303Z,95294.79
2023-01-08T20:16:40.716Z,95289.46
2023-01-08T20:19:09.835Z,95284.86
2023-01-08T20:21:38.289Z,95281.33
2023-01-08T20:24:12.143Z,95277.53
2023-01-08T20:26:43.213Z,95277.20
2023-01-08T20:29:13.033Z,95274.77
2023-01-08T20:31:41.966Z,95273.35
2023-01-08T20:34:15.855Z,95272.10
2023-01-08T20:36:45.455Z,95264.88
2023-01-08T20:39:17.554Z,95260.23
2023-01-08T20:41:55.464Z,95257.59
2023-01-08T20:44:29.261Z,95257.14
2023-01-08T20:46:57.500Z,95254.27
2023-01-08T20:49:26.934Z,95250.02
2023-01-08T20:51:59.810Z,95250.22
2023-01-08T20:54:30.151Z,95249.52
2023-01-08T20:56:59.792Z,95245.95
2023-01-08T20:59:29.084Z,95242.90
2023-01-08T21:01:57.463Z,95242.81
2023-01-08T21:04:26.064Z,95239.33
2023-01-08T21:06:54.266Z,95240.90
2023-01-08T21:09:22.551Z,95240.17
2023-01-08T21:11:50.976Z,95233.77
2023-01-08T21:14:19.346Z,95228.70
2023-01-08T21:16:47.942Z,95225.75
2023-01-08T21:19:16.367Z,95225.15
2023-01-08T21:21:45.927Z,95222.35
2023-01-08T21:24:14.496Z,95222.87
2023-01-08T21:26:45.327Z,95218.63
2023-01-08T21:29:17.646Z,95215.02
2023-01-08T21:31:45.765Z,95214.66
2023-01-08T21:34:14.013Z,95210.04
2023-01-08T21:36:42.199Z,95206.58
2023-01-08T21:39:11.310Z,95204.55
2023-01-08T21:41:58.094Z,95205.92
2023-01-08T21:44:45.527Z,95201.09
2023-01-08T21:47:17.040Z,95203.83
2023-01-08T21:49:46.255Z,95199.34
2023-01-08T21:52:33.586Z,95204.09
2023-01-08T21:55:02.877Z,95203.85
2023-01-08T21:57:31.004Z,95202.43
2023-01-08T21:59:59.000Z,95200.92
2023-01-08T22:02:27.314Z,95196.45
2023-01-08T22:04:56.874Z,95192.55
2023-01-08T22:07:26.110Z,95197.77
2023-01-08T22:09:54.514Z,95199.48
2023-01-08T22:12:23.461Z,95200.82
2023-01-08T22:14:55.807Z,95197.42
2023-01-08T22:17:25.492Z,95196.38
2023-01-08T22:19:53.843Z,95188.17
2023-01-08T22:22:21.910Z,95185.16
2023-01-08T22:24:53.704Z,95181.58
2023-01-08T22:27:22.203Z,95176.73
2023-01-08T22:29:50.360Z,95173.67
2023-01-08T22:32:18.451Z,95171.98
2023-01-08T22:34:46.824Z,95165.80
2023-01-08T22:37:16.971Z,95155.85
2023-01-08T22:39:45.867Z,95152.56
2023-01-08T22:42:14.192Z,95151.06
2023-01-08T22:44:42.330Z,95146.14
2023-01-08T22:47:10.663Z,95141.53
2023-01-08T22:49:38.980Z,95130.55
2023-01-08T22:52:07.797Z,95132.38
2023-01-08T22:54:36.993Z,95132.02
2023-01-08T22:57:04.963Z,95133.44
2023-01-08T22:59:33.347Z,95138.77
2023-01-08T23:02:01.379Z,95139.36
2023-01-08T23:04:29.427Z,95136.71
2023-01-08T23:06:57.638Z,95134.19
2023-01-08T23:09:25.819Z,95137.02
2023-01-08T23:11:54.314Z,95138.80
2023-01-08T23:14:22.493Z,95139.80
2023-01-08T23:16:50.656Z,95136.04
2023-01-08T23:19:19.017Z,95129.55
2023-01-08T23:21:47.107Z,95132.62
2023-01-08T23:24:15.407Z,95132.21
2023-01-08T23:26:43.753Z,95129.04
2023-01-08T23:29:11.911Z,95126.27
2023-01-08T23:31:40.182Z,95125.67
2023-01-08T23:34:08.466Z,95121.01
2023-01-08T23:36:36.597Z,95114.27
2023-01-08T23:39:05.024Z,95110.86
2023-01-08T23:41:35.112Z,95108.54
2023-01-08T23:44:06.748Z,95108.53
2023-01-08T23:46:35.604Z,95105.77
2023-01-08T23:49:04.335Z,95103.50
2023-01-08T23:51:32.261Z,95103.05
2023-01-08T23:54:00.454Z,95099.02
2023-01-08T23:56:29.009Z,95096.41
2023-01-08T23:58:57.857Z,95100.56
